Portada
METAR-TAF:

METAR-TAF

Aeropuertos :

Aeropuerto de Limoges

Limoges, Francia

latitud: 45-52N, longitud: 001-11E, altitud: 396 m

Observación

El informe se hizo hace 29 minutos, a las 16:30 UTC
Viento 7 kt del norte, variando entre noroeste y norte-noreste
Temperatura 27°C
Humedad 42%
Presión 1020 hPa
Visibilidad 10 km o más
sin nubes por debajo de 1500 m y sin presencia de cumulonimbus.

METAR: LFBL 151630Z AUTO 36007KT 320V030 CAVOK 27/13 Q1020 NOSIG

Hora: 18:59 (16:59 UTC)

Pronóstico

El informe se hizo hace 5 horas y 59 minutos, a las 11:00 UTC
Pronóstico válido del 15 a las 12 UTC al 16 a las 12 UTC
Viento 4 kt del noreste
Visibilidad 10 km o más
sin nubes por debajo de 1500 m y sin presencia de cumulonimbus.

TAF: LFBL 151100Z 1512/1612 04004KT CAVOK

Observaciones y pronósticos meteorológicos de más de 4000 aeropuertos (mensajes METAR y TAF).

Los puntos amarillos y rojos representan las estaciones disponibles.

Ponga el ratón en el punto deseado para ver el nombre de la estación.

Haga clic para ver las observaciones y los pronósticos meteorológicos.

Para cambiar el mapa : haga clic en los botones verdes con una cruz de color negro para hacer un zoom, en el botón verde con un guión para alejar o en las flechas verdes para mapas adyacentes.


METAR-TAF: